Time;durP1;ratioP1;P1;durP2;ratioP2;P2;SDS_P1;SDS_P2;PMS_P1;PMS_P2;Temp;Humidity;BMP_temperature;BMP_pressure;BME280_temperature;BME280_humidity;BME280_pressure;Samples;Min_cycle;Max_cycle;Signal;HPM_P1;HPM_P2
2020/12/22 00:00:40;;;;;;;7.95;4.38;;;;;;;9.69;82.08;99886.13;3812186;23;20025;-77
2020/12/22 00:02:13;;;;;;;6.80;4.13;;;;;;;9.72;81.92;99885.00;3813211;23;20109;-78
2020/12/22 00:03:44;;;;;;;6.95;3.65;;;;;;;9.70;82.06;99877.13;3814309;23;20029;-79
2020/12/22 00:05:16;;;;;;;7.10;4.13;;;;;;;9.70;82.14;99876.28;3822896;23;20472;-78
2020/12/22 00:06:47;;;;;;;7.15;4.38;;;;;;;9.73;82.12;99874.16;3827042;23;20025;-79
2020/12/22 00:08:18;;;;;;;8.75;4.35;;;;;;;9.73;82.15;99870.66;3819323;23;20029;-78
2020/12/22 00:09:49;;;;;;;6.55;3.83;;;;;;;9.73;82.15;99870.66;3814603;23;20030;-78
2020/12/22 00:11:20;;;;;;;6.78;3.65;;;;;;;9.73;82.16;99871.50;3815209;23;20028;-78
2020/12/22 00:12:52;;;;;;;6.15;3.42;;;;;;;9.72;82.34;99860.97;3809924;23;20126;-78
2020/12/22 00:14:22;;;;;;;5.85;3.40;;;;;;;9.72;82.33;99859.16;3817333;23;20021;-78
2020/12/22 00:15:54;;;;;;;6.57;3.45;;;;;;;9.73;82.25;99863.50;3811552;23;20108;-78
2020/12/22 00:17:25;;;;;;;6.22;3.33;;;;;;;9.74;82.13;99859.00;3816772;23;20025;-78
2020/12/22 00:18:57;;;;;;;6.25;2.92;;;;;;;9.75;82.25;99860.69;3814991;23;20017;-78
2020/12/22 00:20:28;;;;;;;5.72;3.08;;;;;;;9.73;82.30;99847.47;3814406;23;20025;-78
2020/12/22 00:21:59;;;;;;;6.57;3.28;;;;;;;9.78;82.34;99847.91;3816905;23;20477;-78
2020/12/22 00:23:30;;;;;;;6.03;3.58;;;;;;;9.79;82.34;99849.59;3816047;23;20105;-78
2020/12/22 00:25:01;;;;;;;7.75;3.80;;;;;;;9.81;82.04;99850.28;3816373;23;20021;-78
2020/12/22 00:26:33;;;;;;;6.20;3.47;;;;;;;9.82;82.08;99845.78;3814263;23;20070;-78
2020/12/22 00:28:04;;;;;;;6.13;3.40;;;;;;;9.82;82.04;99846.59;3812704;23;20375;-79
2020/12/22 00:29:35;;;;;;;7.65;3.03;;;;;;;9.82;82.11;99837.75;3813826;23;20017;-78
2020/12/22 00:31:06;;;;;;;5.85;3.30;;;;;;;9.82;82.11;99843.94;3816154;23;20096;-78
2020/12/22 00:32:38;;;;;;;5.35;3.10;;;;;;;9.84;82.09;99852.66;3813426;23;20037;-78
2020/12/22 00:34:10;;;;;;;6.07;3.33;;;;;;;9.83;82.10;99848.28;3817102;23;20029;-78
2020/12/22 00:35:40;;;;;;;5.72;3.58;;;;;;;9.86;82.11;99849.00;3811871;23;20029;-78
2020/12/22 00:37:12;;;;;;;6.18;3.15;;;;;;;9.88;82.03;99844.34;3816778;23;20018;-78
2020/12/22 00:38:44;;;;;;;6.47;3.05;;;;;;;9.91;82.05;99846.75;3811200;23;20021;-78
2020/12/22 00:40:16;;;;;;;5.85;3.35;;;;;;;9.93;81.97;99844.75;3816996;23;20411;-77
2020/12/22 00:41:53;;;;;;;6.47;3.38;;;;;;;9.89;81.80;99838.84;3814387;23;20044;-79
2020/12/22 00:43:27;;;;;;;6.35;3.45;;;;;;;9.95;81.74;99840.97;3818952;23;20387;-78
2020/12/22 00:44:58;;;;;;;5.63;2.70;;;;;;;9.93;81.94;99834.06;3815000;23;20478;-79
2020/12/22 00:46:30;;;;;;;5.15;3.05;;;;;;;9.97;81.72;99833.63;3816373;23;20022;-78
2020/12/22 00:48:02;;;;;;;5.13;2.60;;;;;;;9.99;81.75;99829.00;3827845;23;20041;-78
2020/12/22 00:49:34;;;;;;;5.35;2.85;;;;;;;10.02;81.73;99833.19;3830073;23;20014;-78
2020/12/22 00:51:06;;;;;;;5.65;2.58;;;;;;;10.01;81.82;99838.69;3827358;23;20034;-78
2020/12/22 00:52:38;;;;;;;4.85;2.70;;;;;;;10.04;81.66;99841.91;3826394;23;20082;-78
2020/12/22 00:54:09;;;;;;;5.50;3.28;;;;;;;10.05;81.59;99838.25;3817963;23;20013;-78
2020/12/22 00:55:40;;;;;;;5.57;3.05;;;;;;;10.04;81.69;99831.22;3816872;23;20591;-79
2020/12/22 00:57:12;;;;;;;5.03;2.58;;;;;;;10.08;81.67;99827.28;3813879;23;20029;-78
2020/12/22 00:58:43;;;;;;;6.20;3.10;;;;;;;10.14;81.58;99836.53;3815984;23;20017;-78
2020/12/22 01:00:16;;;;;;;4.95;2.33;;;;;;;10.15;81.48;99823.03;3822044;23;20079;-78
2020/12/22 01:01:47;;;;;;;4.82;2.40;;;;;;;10.21;81.32;99824.28;3823768;23;20026;-78
2020/12/22 01:03:19;;;;;;;6.30;3.08;;;;;;;10.19;81.27;99812.88;3811887;23;20387;-78
2020/12/22 01:04:51;;;;;;;6.28;2.05;;;;;;;10.22;81.30;99814.41;3817756;23;20451;-78
2020/12/22 01:06:22;;;;;;;4.82;2.50;;;;;;;10.22;81.32;99799.25;3812955;23;20036;-79
2020/12/22 01:07:53;;;;;;;4.35;2.10;;;;;;;10.24;81.30;99810.63;3816584;23;20029;-78
2020/12/22 01:09:24;;;;;;;5.88;2.72;;;;;;;10.26;81.37;99813.13;3813323;23;20021;-78
2020/12/22 01:10:56;;;;;;;7.05;2.30;;;;;;;10.26;81.13;99815.81;3817634;23;20540;-78
2020/12/22 01:12:27;;;;;;;5.03;2.08;;;;;;;10.26;81.26;99813.97;3814079;23;20121;-78
2020/12/22 01:13:58;;;;;;;3.78;2.00;;;;;;;10.30;81.16;99809.16;3812754;23;20032;-78
2020/12/22 01:15:30;;;;;;;5.97;2.30;;;;;;;10.36;81.05;99813.94;3814063;23;20033;-78
2020/12/22 01:17:00;;;;;;;4.43;2.13;;;;;;;10.35;81.00;99817.59;3816590;23;20033;-78
2020/12/22 01:18:33;;;;;;;4.43;2.10;;;;;;;10.39;80.97;99819.00;3807827;23;20036;-78
2020/12/22 01:20:04;;;;;;;4.47;1.67;;;;;;;10.46;80.90;99813.88;3812498;23;20045;-78
2020/12/22 01:21:35;;;;;;;4.10;1.88;;;;;;;10.47;80.80;99815.56;3811377;23;20024;-78
2020/12/22 01:23:07;;;;;;;4.03;1.92;;;;;;;10.50;80.74;99817.97;3818235;23;20041;-78
2020/12/22 01:24:38;;;;;;;4.47;1.80;;;;;;;10.51;80.76;99824.13;3813412;23;20022;-78
2020/12/22 01:26:09;;;;;;;3.83;1.75;;;;;;;10.51;80.78;99827.66;3814729;23;20017;-78
2020/12/22 01:27:41;;;;;;;3.45;1.70;;;;;;;10.51;80.83;99837.50;3810232;23;20029;-78
2020/12/22 01:29:12;;;;;;;3.65;1.60;;;;;;;10.52;80.75;99839.19;3816173;23;20080;-79
2020/12/22 01:30:43;;;;;;;3.75;1.80;;;;;;;10.56;80.70;99832.56;3812845;23;20022;-79
2020/12/22 01:32:14;;;;;;;3.58;1.55;;;;;;;10.62;80.63;99839.97;3815502;23;20026;-80
2020/12/22 01:33:46;;;;;;;3.90;1.38;;;;;;;10.64;80.56;99838.00;3811025;23;20025;-80
2020/12/22 01:35:18;;;;;;;3.60;1.38;;;;;;;10.70;80.48;99836.56;3815537;23;20100;-80
2020/12/22 01:36:48;;;;;;;3.85;1.60;;;;;;;10.67;80.46;99832.34;3813421;23;20030;-80
2020/12/22 01:38:20;;;;;;;4.50;1.27;;;;;;;10.67;80.61;99831.50;3814738;23;20026;-79
2020/12/22 01:39:51;;;;;;;3.45;1.45;;;;;;;10.70;80.44;99821.34;3810768;23;20021;-80
2020/12/22 01:41:22;;;;;;;3.35;1.20;;;;;;;10.75;80.32;99816.41;3814525;23;20025;-80
2020/12/22 01:42:53;;;;;;;2.38;0.95;;;;;;;10.81;80.13;99819.44;3814656;23;20084;-79
2020/12/22 01:44:24;;;;;;;2.75;1.33;;;;;;;10.82;80.13;99811.25;3813499;23;20032;-79
2020/12/22 01:45:55;;;;;;;2.88;1.08;;;;;;;10.87;79.96;99816.16;3815039;23;20064;-79
2020/12/22 01:47:26;;;;;;;5.75;1.08;;;;;;;10.88;79.80;99823.19;3817166;23;20017;-79
2020/12/22 01:48:59;;;;;;;3.70;1.35;;;;;;;10.92;79.72;99829.91;3813594;23;20018;-79
2020/12/22 01:50:30;;;;;;;2.47;1.02;;;;;;;10.96;79.60;99820.59;3816587;23;20410;-79
2020/12/22 01:52:03;;;;;;;3.22;1.20;;;;;;;11.00;79.55;99816.63;3813813;23;20026;-79
2020/12/22 01:53:34;;;;;;;2.85;1.30;;;;;;;11.03;79.50;99818.13;3816607;23;20486;-79
2020/12/22 01:55:05;;;;;;;2.97;1.20;;;;;;;11.02;79.44;99827.16;3817860;23;20033;-80
2020/12/22 01:56:38;;;;;;;2.35;0.90;;;;;;;11.06;79.26;99834.72;3814831;23;20037;-79
2020/12/22 01:58:09;;;;;;;2.95;1.17;;;;;;;11.08;79.42;99827.38;3817514;23;20033;-80
2020/12/22 01:59:40;;;;;;;2.60;0.90;;;;;;;11.09;79.34;99836.28;3810046;23;20467;-79
2020/12/22 02:01:12;;;;;;;2.03;0.88;;;;;;;11.03;79.35;99829.69;3818330;23;20586;-79
2020/12/22 02:02:44;;;;;;;2.72;1.23;;;;;;;11.10;79.24;99821.06;3815923;23;20482;-79
2020/12/22 02:04:16;;;;;;;2.50;0.85;;;;;;;11.12;79.25;99809.19;3815488;23;20026;-80
2020/12/22 02:05:47;;;;;;;3.03;1.30;;;;;;;11.13;79.07;99812.72;3813106;23;20029;-78
2020/12/22 02:07:18;;;;;;;2.58;0.88;;;;;;;11.10;79.09;99821.06;3818056;23;20449;-80
2020/12/22 02:08:49;;;;;;;2.25;0.80;;;;;;;11.15;79.17;99819.59;3814166;23;20443;-80
2020/12/22 02:10:21;;;;;;;2.08;0.90;;;;;;;11.21;78.82;99812.78;3812571;23;20025;-80
2020/12/22 02:11:52;;;;;;;2.15;0.82;;;;;;;11.23;78.80;99808.13;3813473;23;20054;-78
2020/12/22 02:13:23;;;;;;;3.42;0.93;;;;;;;11.27;78.75;99812.16;3817257;23;20040;-80
2020/12/22 02:14:55;;;;;;;2.97;0.93;;;;;;;11.30;78.60;99811.88;3811130;23;20084;-79
2020/12/22 02:16:26;;;;;;;2.65;0.80;;;;;;;11.34;78.52;99813.22;3814469;23;20033;-79
2020/12/22 02:17:57;;;;;;;1.80;0.60;;;;;;;11.38;78.39;99795.88;3815475;23;20377;-78
2020/12/22 02:19:30;;;;;;;2.55;0.90;;;;;;;11.40;78.35;99795.69;3817455;23;20022;-78
2020/12/22 02:21:02;;;;;;;2.65;0.93;;;;;;;11.45;78.26;99797.91;3815438;23;20021;-78
2020/12/22 02:22:34;;;;;;;1.63;0.70;;;;;;;11.44;78.29;99790.88;3818118;23;20347;-77
2020/12/22 02:24:05;;;;;;;1.52;0.68;;;;;;;11.46;78.25;99796.91;3815887;23;20391;-77
2020/12/22 02:25:47;;;;;;;1.58;0.65;;;;;;;11.47;77.93;99793.25;3818255;23;20036;-77
2020/12/22 02:27:18;;;;;;;2.28;0.70;;;;;;;11.46;78.23;99795.09;3811162;23;20072;-77
2020/12/22 02:28:51;;;;;;;1.90;0.63;;;;;;;11.50;78.05;99792.94;3815087;23;20084;-78
2020/12/22 02:30:23;;;;;;;2.03;1.02;;;;;;;11.51;78.14;99792.78;3814796;23;20069;-78
2020/12/22 02:31:54;;;;;;;1.42;0.60;;;;;;;11.52;78.04;99794.44;3826235;23;20045;-78
2020/12/22 02:33:25;;;;;;;2.20;0.80;;;;;;;11.54;78.01;99794.28;3822282;23;20021;-78
2020/12/22 02:34:56;;;;;;;1.95;0.75;;;;;;;11.54;78.01;99791.59;3824176;23;20025;-78
2020/12/22 02:36:29;;;;;;;3.50;1.00;;;;;;;11.57;77.94;99790.47;3825587;23;20087;-78
2020/12/22 02:38:00;;;;;;;1.38;0.60;;;;;;;11.59;77.93;99788.47;3829090;23;20036;-78
2020/12/22 02:39:31;;;;;;;2.65;0.95;;;;;;;11.59;77.93;99789.31;3826818;23;20026;-78
2020/12/22 02:41:03;;;;;;;1.65;0.70;;;;;;;11.62;77.91;99797.00;3829206;23;20025;-79
2020/12/22 02:42:34;;;;;;;2.13;0.90;;;;;;;11.63;77.68;99796.00;3826062;23;20399;-78
2020/12/22 02:44:06;;;;;;;1.85;0.70;;;;;;;11.64;77.82;99789.66;3828885;23;20104;-79
2020/12/22 02:45:37;;;;;;;2.70;0.77;;;;;;;11.65;77.87;99791.34;3824288;23;20025;-78
2020/12/22 02:47:12;;;;;;;1.60;0.50;;;;;;;11.62;77.76;99786.31;3827757;23;20028;-78
2020/12/22 02:48:43;;;;;;;2.42;0.73;;;;;;;11.65;77.71;99788.66;3825126;23;20014;-78
2020/12/22 02:50:14;;;;;;;1.75;0.65;;;;;;;11.66;77.70;99787.69;3828658;23;20025;-78
2020/12/22 02:51:46;;;;;;;1.25;0.70;;;;;;;11.68;77.60;99783.00;3824585;23;20089;-78
2020/12/22 02:53:19;;;;;;;1.35;0.50;;;;;;;11.70;77.35;99782.84;3830603;23;20052;-78
2020/12/22 02:54:50;;;;;;;2.00;0.70;;;;;;;11.69;77.59;99784.69;3826884;23;20029;-78
2020/12/22 02:56:21;;;;;;;1.90;0.60;;;;;;;11.70;77.53;99786.38;3821454;23;20108;-78
2020/12/22 02:57:52;;;;;;;1.67;0.47;;;;;;;11.76;77.40;99789.41;3816602;23;20084;-78
2020/12/22 02:59:23;;;;;;;1.83;0.73;;;;;;;11.79;77.33;99789.91;3818520;23;20018;-78
2020/12/22 03:00:54;;;;;;;1.50;0.55;;;;;;;11.81;77.42;99787.06;3815362;23;20026;-78
2020/12/22 03:02:26;;;;;;;3.60;0.57;;;;;;;11.85;77.12;99785.78;3814168;23;20025;-78
2020/12/22 03:03:57;;;;;;;2.40;0.77;;;;;;;11.83;77.17;99783.25;3818021;23;20020;-78
2020/12/22 03:05:28;;;;;;;1.75;0.60;;;;;;;11.83;77.17;99775.22;3815299;23;20025;-78
2020/12/22 03:07:00;;;;;;;1.52;0.50;;;;;;;11.88;77.09;99784.59;3815814;23;20028;-78
2020/12/22 03:08:33;;;;;;;1.75;0.60;;;;;;;11.92;77.00;99770.72;3815244;23;20029;-78
2020/12/22 03:10:06;;;;;;;1.77;0.60;;;;;;;11.93;76.96;99772.41;3815359;23;20080;-78
2020/12/22 03:11:37;;;;;;;1.17;0.60;;;;;;;11.93;76.96;99775.09;3815317;23;20022;-78
2020/12/22 03:13:08;;;;;;;2.20;0.65;;;;;;;11.90;76.85;99780.78;3817353;23;20022;-78
2020/12/22 03:14:39;;;;;;;1.80;0.60;;;;;;;11.92;76.96;99776.09;3815683;23;20071;-78
2020/12/22 03:16:10;;;;;;;1.48;0.50;;;;;;;11.92;76.90;99776.09;3815953;23;20466;-78
2020/12/22 03:17:42;;;;;;;1.52;0.75;;;;;;;11.92;76.77;99773.41;3820589;23;20037;-78
2020/12/22 03:19:13;;;;;;;2.25;0.60;;;;;;;11.94;76.74;99775.94;3820019;23;20018;-79
2020/12/22 03:20:44;;;;;;;1.35;0.50;;;;;;;11.94;76.58;99771.41;3808266;23;20329;-78
2020/12/22 03:22:16;;;;;;;2.20;0.63;;;;;;;11.97;76.63;99771.13;3818516;23;20076;-77
2020/12/22 03:23:47;;;;;;;1.55;0.80;;;;;;;11.99;76.61;99773.66;3815371;23;20029;-78
2020/12/22 03:25:18;;;;;;;1.40;0.60;;;;;;;12.01;76.51;99761.75;3817422;23;20080;-78
2020/12/22 03:26:49;;;;;;;1.50;0.40;;;;;;;12.00;76.41;99760.09;3810937;23;20073;-78
2020/12/22 03:28:21;;;;;;;1.05;0.40;;;;;;;12.01;76.32;99764.44;3824026;23;20029;-79
2020/12/22 03:29:52;;;;;;;0.70;0.30;;;;;;;11.97;76.56;99776.50;3823721;23;20017;-78
2020/12/22 03:31:24;;;;;;;1.48;0.50;;;;;;;12.03;76.35;99780.38;3826246;23;20021;-78
2020/12/22 03:32:56;;;;;;;0.75;0.30;;;;;;;12.04;76.24;99767.81;3821019;23;20029;-78
2020/12/22 03:34:27;;;;;;;0.43;0.32;;;;;;;12.08;76.19;99777.22;3823860;23;20022;-79
2020/12/22 03:35:58;;;;;;;1.75;0.50;;;;;;;12.09;76.17;99776.22;3815986;23;20625;-78
2020/12/22 03:37:32;;;;;;;1.23;0.40;;;;;;;12.08;75.91;99779.91;3817325;23;20088;-77
2020/12/22 03:39:04;;;;;;;1.15;0.45;;;;;;;12.09;75.91;99777.03;3815043;23;20022;-78
2020/12/22 03:40:36;;;;;;;0.75;0.40;;;;;;;12.14;75.84;99787.28;3817338;23;20029;-78
2020/12/22 03:42:06;;;;;;;1.45;0.50;;;;;;;12.13;75.88;99788.28;3813030;23;20022;-78
2020/12/22 03:43:39;;;;;;;0.93;0.40;;;;;;;12.15;75.68;99802.34;3816766;23;20028;-78
2020/12/22 03:45:10;;;;;;;0.52;0.30;;;;;;;12.13;75.77;99788.28;3814449;23;20026;-78
2020/12/22 03:46:47;;;;;;;1.67;0.50;;;;;;;12.14;75.47;99804.19;3816404;23;20044;-79
2020/12/22 03:48:18;;;;;;;0.40;0.20;;;;;;;12.16;75.64;99801.34;3813330;23;20020;-78
2020/12/22 03:49:49;;;;;;;0.70;0.30;;;;;;;12.19;75.49;99803.69;3815380;23;20476;-78
2020/12/22 03:51:21;;;;;;;0.70;0.30;;;;;;;12.19;75.52;99817.09;3812321;23;20542;-78
2020/12/22 03:52:53;;;;;;;1.40;0.45;;;;;;;12.22;75.48;99816.78;3815214;23;20036;-78
2020/12/22 03:54:24;;;;;;;0.30;0.20;;;;;;;12.26;75.49;99809.25;3815172;23;20076;-78
2020/12/22 03:55:55;;;;;;;0.45;0.30;;;;;;;12.27;75.37;99793.03;3817251;23;20029;-78
2020/12/22 03:57:27;;;;;;;2.03;0.60;;;;;;;12.25;75.37;99787.00;3812247;23;20319;-79
2020/12/22 03:58:58;;;;;;;1.48;0.45;;;;;;;12.28;75.30;99789.31;3812906;23;20029;-79
2020/12/22 04:00:29;;;;;;;0.68;0.35;;;;;;;12.31;75.42;99793.53;3814473;23;20032;-79
2020/12/22 04:02:01;;;;;;;0.95;0.43;;;;;;;12.37;75.08;99789.38;3815270;23;20033;-79
2020/12/22 04:03:32;;;;;;;1.00;0.38;;;;;;;12.37;75.32;99781.34;3816628;23;20069;-79
2020/12/22 04:05:04;;;;;;;1.15;0.30;;;;;;;12.38;75.24;99793.72;3815594;23;20390;-79
2020/12/22 04:06:35;;;;;;;0.43;0.20;;;;;;;12.44;75.12;99793.06;3812546;23;20071;-79
2020/12/22 04:08:07;;;;;;;0.80;0.30;;;;;;;12.47;75.01;99790.06;3816615;23;20033;-78
2020/12/22 04:09:38;;;;;;;2.95;0.45;;;;;;;12.47;75.01;99790.06;3813038;23;20526;-78
2020/12/22 04:11:09;;;;;;;1.38;0.30;;;;;;;12.47;75.15;99790.06;3818243;23;20025;-79
2020/12/22 04:12:40;;;;;;;0.70;0.35;;;;;;;12.45;75.20;99790.22;3812801;23;20084;-79
2020/12/22 04:14:12;;;;;;;1.58;0.30;;;;;;;12.50;74.99;99795.09;3812460;23;20056;-79
2020/12/22 04:15:43;;;;;;;0.70;0.35;;;;;;;12.54;74.76;99791.09;3810772;23;20018;-78
2020/12/22 04:17:15;;;;;;;0.45;0.20;;;;;;;12.56;74.71;99788.25;3816006;23;20053;-79
2020/12/22 04:18:45;;;;;;;1.65;0.30;;;;;;;12.56;74.83;99791.78;3812624;23;20018;-79
2020/12/22 04:20:17;;;;;;;0.50;0.30;;;;;;;12.63;74.66;99792.78;3815651;23;20029;-79
2020/12/22 04:21:48;;;;;;;0.22;0.20;;;;;;;12.66;74.36;99790.78;3813595;23;20048;-79
2020/12/22 04:23:20;;;;;;;1.05;0.22;;;;;;;12.64;74.34;99797.16;3816717;23;20025;-79
2020/12/22 04:24:51;;;;;;;0.68;0.20;;;;;;;12.67;74.23;99798.66;3813622;23;20034;-79
2020/12/22 04:26:22;;;;;;;0.30;0.25;;;;;;;12.72;74.17;99811.59;3811615;23;20025;-79
2020/12/22 04:27:54;;;;;;;0.50;0.20;;;;;;;12.74;74.19;99791.63;3810727;23;20021;-79
2020/12/22 04:29:24;;;;;;;1.13;0.30;;;;;;;12.79;73.99;99801.88;3814469;23;20594;-78
2020/12/22 04:30:56;;;;;;;0.20;0.20;;;;;;;12.79;73.86;99800.03;3815058;23;20021;-79
2020/12/22 04:32:26;;;;;;;0.38;0.28;;;;;;;12.80;74.16;99795.50;3813851;23;20025;-79
2020/12/22 04:33:58;;;;;;;0.20;0.20;;;;;;;12.82;73.96;99793.50;3811542;23;20022;-79
2020/12/22 04:35:29;;;;;;;0.20;0.20;;;;;;;12.88;73.74;99805.41;3813825;23;20084;-79
2020/12/22 04:37:00;;;;;;;0.98;0.40;;;;;;;12.94;73.72;99804.75;3812119;23;20025;-79
2020/12/22 04:38:32;;;;;;;0.65;0.28;;;;;;;12.95;73.74;99801.88;3812189;23;20069;-79
2020/12/22 04:40:05;;;;;;;0.17;0.17;;;;;;;12.95;73.36;99796.50;3815724;23;20032;-79
2020/12/22 04:41:37;;;;;;;1.85;0.30;;;;;;;12.97;73.55;99798.19;3812590;23;20029;-79
2020/12/22 04:43:08;;;;;;;0.22;0.20;;;;;;;13.00;73.44;99797.88;3817070;23;20025;-79
2020/12/22 04:44:40;;;;;;;0.47;0.25;;;;;;;12.98;73.58;99792.69;3822460;23;20032;-80
2020/12/22 04:46:11;;;;;;;0.32;0.20;;;;;;;13.04;73.40;99796.50;3826383;23;20026;-79
2020/12/22 04:47:42;;;;;;;0.45;0.20;;;;;;;13.08;73.45;99795.19;3817740;23;20040;-79
2020/12/22 04:49:15;;;;;;;0.20;0.20;;;;;;;13.12;73.35;99799.22;3824431;23;20028;-79
2020/12/22 04:50:48;;;;;;;0.32;0.20;;;;;;;13.12;73.07;99793.88;3825863;23;20024;-79
2020/12/22 04:52:22;;;;;;;0.20;0.20;;;;;;;13.14;73.03;99794.50;3826618;23;20025;-80
2020/12/22 04:53:58;;;;;;;0.68;0.38;;;;;;;13.13;72.95;99783.94;3824756;23;20470;-79
2020/12/22 04:55:30;;;;;;;0.57;0.20;;;;;;;13.10;73.30;99777.91;3823272;23;20036;-79
2020/12/22 04:57:04;;;;;;;1.80;0.30;;;;;;;13.15;73.06;99784.63;3825815;23;20057;-79
2020/12/22 04:58:35;;;;;;;0.93;0.28;;;;;;;13.15;73.17;99781.94;3824882;23;20017;-79
2020/12/22 05:00:07;;;;;;;0.22;0.20;;;;;;;13.16;72.97;99778.25;3825930;23;20024;-79
2020/12/22 05:01:40;;;;;;;0.73;0.30;;;;;;;13.15;73.14;99788.13;3828524;23;20029;-79
2020/12/22 05:03:12;;;;;;;0.47;0.20;;;;;;;13.13;73.23;99781.25;3827453;22;20048;-79
2020/12/22 05:05:02;;;;;;;0.75;0.32;;;;;;;13.16;72.71;99786.31;3829950;23;20033;-79
2020/12/22 05:07:00;;;;;;;0.25;0.20;;;;;;;13.14;72.80;99791.81;3824470;23;20022;-78
2020/12/22 05:08:40;;;;;;;0.47;0.20;;;;;;;13.17;72.88;99794.19;3813252;23;20033;-78
2020/12/22 05:10:17;;;;;;;1.85;0.47;;;;;;;13.15;72.70;99798.88;3814010;23;20034;-79
2020/12/22 05:11:49;;;;;;;0.13;0.13;;;;;;;13.16;72.73;99805.09;3813318;23;20026;-78
2020/12/22 05:13:21;;;;;;;1.27;0.55;;;;;;;13.18;72.72;99795.88;3815896;23;20056;-78
2020/12/22 05:14:53;;;;;;;1.00;0.30;;;;;;;13.16;72.51;99800.56;3815569;23;20021;-78
2020/12/22 05:16:27;;;;;;;1.52;0.30;;;;;;;13.19;72.37;99804.75;3818024;23;20026;-79
2020/12/22 05:18:01;;;;;;;0.88;0.30;;;;;;;13.18;72.49;99806.59;3812899;23;20017;-79
2020/12/22 05:19:35;;;;;;;1.42;0.30;;;;;;;13.21;72.24;99808.97;3812957;23;20359;-79
2020/12/22 05:21:07;;;;;;;1.33;0.40;;;;;;;13.26;72.37;99809.28;3814899;23;20712;-78
2020/12/22 05:22:38;;;;;;;0.90;0.30;;;;;;;13.24;72.22;99805.91;3815649;23;20355;-79
2020/12/22 05:24:10;;;;;;;0.60;0.30;;;;;;;13.30;72.17;99798.22;3814803;23;20025;-78
2020/12/22 05:25:44;;;;;;;0.98;0.35;;;;;;;13.33;72.15;99795.16;3815285;23;20040;-78
2020/12/22 05:27:18;;;;;;;0.15;0.15;;;;;;;13.29;72.22;99800.03;3813538;23;20060;-79
2020/12/22 05:28:50;;;;;;;0.85;0.30;;;;;;;13.26;72.29;99795.84;3815867;23;20108;-79
2020/12/22 05:30:21;;;;;;;0.73;0.30;;;;;;;13.30;72.14;99792.84;3814519;23;20045;-79
2020/12/22 05:31:53;;;;;;;0.82;0.30;;;;;;;13.30;72.46;99793.66;3817964;23;20072;-78
2020/12/22 05:33:25;;;;;;;0.88;0.40;;;;;;;13.36;72.27;99798.38;3815187;23;20028;-79
2020/12/22 05:34:58;;;;;;;0.63;0.30;;;;;;;13.35;72.14;99787.78;3824406;23;20026;-79
2020/12/22 05:36:31;;;;;;;0.50;0.25;;;;;;;13.34;72.19;99799.53;3820375;23;20696;-79
2020/12/22 05:38:04;;;;;;;0.28;0.20;;;;;;;13.35;72.36;99787.78;3822032;23;20435;-79
2020/12/22 05:39:37;;;;;;;1.05;0.30;;;;;;;13.36;72.32;99792.16;3822852;23;20034;-78
2020/12/22 05:41:10;;;;;;;1.23;0.40;;;;;;;13.39;72.31;99800.75;3821387;23;20041;-79
2020/12/22 05:42:41;;;;;;;1.35;0.50;;;;;;;13.40;72.43;99798.91;3823990;23;20203;-79
2020/12/22 05:44:13;;;;;;;1.10;0.30;;;;;;;13.40;72.22;99809.66;3821423;23;20022;-79
2020/12/22 05:45:45;;;;;;;1.60;0.30;;;;;;;13.39;72.30;99814.16;3815629;23;20025;-78
2020/12/22 05:47:18;;;;;;;1.65;0.30;;;;;;;13.41;72.38;99812.16;3818581;23;20037;-80
2020/12/22 05:48:49;;;;;;;0.57;0.35;;;;;;;13.48;72.28;99816.84;3817441;23;20340;-80
2020/12/22 05:50:24;;;;;;;0.45;0.25;;;;;;;13.46;72.34;99811.66;3820740;23;20041;-79
2020/12/22 05:51:56;;;;;;;0.77;0.30;;;;;;;13.51;72.38;99809.28;3817594;23;20501;-79
2020/12/22 05:53:29;;;;;;;1.25;0.30;;;;;;;13.44;72.09;99823.56;3820442;23;20026;-79
2020/12/22 05:55:02;;;;;;;0.77;0.40;;;;;;;13.41;72.44;99816.69;3819168;23;20025;-79
2020/12/22 05:56:35;;;;;;;1.00;0.30;;;;;;;13.50;72.26;99825.56;3819718;23;20031;-80
2020/12/22 05:58:11;;;;;;;2.17;0.35;;;;;;;13.51;72.29;99828.06;3822178;23;20032;-78
2020/12/22 05:59:42;;;;;;;0.95;0.30;;;;;;;13.50;72.22;99815.69;3817138;22;20032;-79
2020/12/22 06:01:13;;;;;;;1.63;0.40;;;;;;;13.51;72.21;99811.13;3822585;23;20021;-79
2020/12/22 06:02:51;;;;;;;0.90;0.30;;;;;;;13.51;72.38;99811.13;3820137;23;20025;-80
2020/12/22 06:04:22;;;;;;;1.15;0.47;;;;;;;13.47;72.61;99821.38;3825155;23;20078;-79
2020/12/22 06:05:55;;;;;;;1.30;0.40;;;;;;;13.46;72.39;99819.72;3815874;23;20077;-79
2020/12/22 06:07:27;;;;;;;1.63;0.50;;;;;;;13.48;72.04;99823.06;3817931;23;20497;-79
2020/12/22 06:08:59;;;;;;;1.90;0.60;;;;;;;13.52;72.28;99824.38;3810393;23;20017;-79
2020/12/22 06:10:31;;;;;;;1.52;0.45;;;;;;;13.58;72.22;99828.25;3818174;23;20108;-79
2020/12/22 06:12:07;;;;;;;2.08;0.77;;;;;;;13.56;72.03;99822.19;3813238;23;20018;-79
2020/12/22 06:13:38;;;;;;;0.70;0.30;;;;;;;13.57;72.26;99822.06;3818237;23;20021;-79
2020/12/22 06:15:12;;;;;;;2.03;0.50;;;;;;;13.57;72.29;99827.41;3815821;23;20017;-79
2020/12/22 06:16:43;;;;;;;1.88;0.40;;;;;;;13.52;72.30;99823.56;3812717;23;20080;-80
2020/12/22 06:18:15;;;;;;;1.27;0.40;;;;;;;13.51;72.52;99816.50;3817985;23;20021;-80
2020/12/22 06:19:47;;;;;;;2.08;0.50;;;;;;;13.56;72.38;99820.38;3818405;23;20028;-78
2020/12/22 06:21:21;;;;;;;1.45;0.40;;;;;;;13.60;72.16;99812.81;3813903;23;20018;-79
2020/12/22 06:23:00;;;;;;;1.80;0.40;;;;;;;13.60;72.29;99809.28;3818742;23;20056;-79
2020/12/22 06:24:31;;;;;;;0.93;0.40;;;;;;;13.59;72.35;99813.00;3814873;23;20022;-78
2020/12/22 06:26:04;;;;;;;0.30;0.25;;;;;;;13.61;72.16;99811.81;3817180;23;20026;-79
2020/12/22 06:31:18;;;;;;;0.35;0.20;;;;;;;13.58;72.48;99814.81;3814170;23;20021;-79
2020/12/22 06:32:49;;;;;;;0.70;0.30;;;;;;;13.58;72.45;99814.81;3814965;23;20088;-79
2020/12/22 06:34:24;;;;;;;1.83;0.30;;;;;;;13.56;72.46;99820.38;3818165;23;20547;-79
2020/12/22 06:36:05;;;;;;;0.20;0.20;;;;;;;13.56;72.33;99824.88;3812892;23;20030;-79
2020/12/22 06:37:44;;;;;;;1.27;0.30;;;;;;;13.59;72.33;99821.03;3817098;23;20022;-79
2020/12/22 06:39:39;;;;;;;0.93;0.40;;;;;;;13.56;72.28;99820.38;3814583;23;20133;-79
2020/12/22 06:41:10;;;;;;;0.70;0.30;;;;;;;13.50;72.71;99817.53;3815070;23;20088;-79
2020/12/22 06:42:45;;;;;;;1.67;0.50;;;;;;;13.56;72.48;99817.69;3814760;23;20025;-79
2020/12/22 06:44:24;;;;;;;0.77;0.40;;;;;;;13.57;72.53;99811.31;3817175;23;20029;-80
2020/12/22 06:45:55;;;;;;;1.80;0.50;;;;;;;13.55;72.94;99815.19;3813895;23;20108;-80
2020/12/22 06:47:34;;;;;;;0.50;0.40;;;;;;;13.55;72.57;99824.06;3815730;23;20076;-79
2020/12/22 06:49:05;;;;;;;1.23;0.40;;;;;;;13.56;72.80;99820.38;3814517;23;20040;-79
2020/12/22 06:50:43;;;;;;;0.57;0.30;;;;;;;13.57;72.92;99822.06;3815937;23;20017;-79
2020/12/22 06:52:28;;;;;;;2.17;0.43;;;;;;;13.51;73.17;99822.72;3817259;23;20394;-79
2020/12/22 06:54:01;;;;;;;1.27;0.30;;;;;;;13.49;73.51;99827.44;3814092;23;20025;-79
2020/12/22 06:55:51;;;;;;;2.88;0.75;;;;;;;13.38;74.40;99825.06;3815720;23;20041;-79
2020/12/22 06:57:45;;;;;;;3.00;0.67;;;;;;;13.33;74.83;99824.69;3812318;23;20025;-79
2020/12/22 06:59:50;;;;;;;2.40;0.85;;;;;;;13.28;75.29;99827.88;3816411;23;20018;-79
2020/12/22 07:01:32;;;;;;;5.93;1.42;;;;;;;13.24;75.26;99821.19;3815724;23;20040;-79
2020/12/22 07:03:12;;;;;;;3.30;1.13;;;;;;;13.18;75.35;99821.84;3812742;23;20033;-79
2020/12/22 07:04:44;;;;;;;2.70;1.20;;;;;;;13.17;75.29;99820.19;3817957;23;20053;-78
2020/12/22 07:06:35;;;;;;;3.47;1.58;;;;;;;13.11;75.36;99816.34;3812162;23;20301;-78
2020/12/22 07:08:07;;;;;;;3.35;1.83;;;;;;;13.06;75.67;99827.56;3814277;23;20021;-79
2020/12/22 07:09:39;;;;;;;3.90;2.05;;;;;;;13.03;75.97;99819.00;3811957;23;20018;-79
2020/12/22 07:11:19;;;;;;;2.70;1.30;;;;;;;13.04;75.99;99828.72;3814578;23;20045;-78
2020/12/22 07:12:51;;;;;;;2.88;1.30;;;;;;;12.95;76.23;99828.72;3813628;23;20025;-79
2020/12/22 07:14:24;;;;;;;3.00;1.52;;;;;;;12.89;76.65;99829.38;3817241;23;20410;-79
2020/12/22 07:15:58;;;;;;;4.07;1.80;;;;;;;12.84;76.69;99839.78;3815937;23;20029;-79
2020/12/22 07:17:29;;;;;;;4.00;1.23;;;;;;;12.84;76.82;99841.59;3814629;23;20036;-79
2020/12/22 07:19:03;;;;;;;2.60;0.60;;;;;;;12.80;76.97;99843.78;3817921;23;20017;-78
2020/12/22 07:20:35;;;;;;;1.90;0.75;;;;;;;12.78;76.94;99843.09;3816541;23;20026;-79